Time;durP1;ratioP1;P1;durP2;ratioP2;P2;SDS_P1;SDS_P2;PMS_P1;PMS_P2;Temp;Humidity;BMP_temperature;BMP_pressure;BME280_temperature;BME280_humidity;BME280_pressure;Samples;Min_cycle;Max_cycle;Signal;HPM_P1;HPM_P2
2022/06/06 00:02:05;;;;;;;3.00;2.17;;;17.60;76.90;;;;;;5007703;28;20072;-79
2022/06/06 00:04:31;;;;;;;2.50;2.30;;;17.60;77.20;;;;;;5023900;28;20137;-79
2022/06/06 00:06:58;;;;;;;3.22;2.47;;;17.70;76.90;;;;;;5021810;28;20072;-79
2022/06/06 00:09:26;;;;;;;2.67;2.30;;;17.70;77.00;;;;;;5054035;28;20065;-79
2022/06/06 00:11:55;;;;;;;2.47;2.28;;;17.60;77.00;;;;;;5022392;28;20067;-78
2022/06/06 00:14:21;;;;;;;2.63;2.20;;;17.70;77.00;;;;;;5020814;28;20544;-78
2022/06/06 00:16:47;;;;;;;2.55;1.98;;;17.70;77.10;;;;;;5020494;28;20501;-78
2022/06/06 00:19:14;;;;;;;3.03;2.30;;;17.70;76.80;;;;;;5037901;28;20037;-78
2022/06/06 00:21:41;;;;;;;4.18;2.35;;;17.70;77.00;;;;;;5053112;28;20037;-77
2022/06/06 00:24:08;;;;;;;4.22;2.20;;;17.60;77.10;;;;;;5023587;28;20061;-78
2022/06/06 00:26:35;;;;;;;3.72;2.42;;;17.60;76.90;;;;;;5053979;28;20041;-78
2022/06/06 00:29:02;;;;;;;3.08;2.00;;;17.60;76.90;;;;;;5021604;28;20140;-77
2022/06/06 00:36:59;;;;;;;3.05;2.20;;;17.50;76.60;;;;;;5019514;28;20877;-78
2022/06/06 00:39:26;;;;;;;2.45;2.25;;;17.50;76.80;;;;;;5023687;28;20132;-79
2022/06/06 00:41:54;;;;;;;2.58;2.38;;;17.50;77.00;;;;;;5022882;28;20518;-79
2022/06/06 00:44:30;;;;;;;2.50;2.30;;;17.40;76.80;;;;;;5020680;28;20049;-79
2022/06/06 00:47:00;;;;;;;3.65;2.00;;;17.50;77.00;;;;;;5022148;28;20043;-79
2022/06/06 00:49:34;;;;;;;3.63;2.40;;;17.50;77.10;;;;;;5019572;28;20038;-78
2022/06/06 00:52:01;;;;;;;4.05;2.50;;;17.40;77.00;;;;;;5021592;28;20128;-78
2022/06/06 00:54:28;;;;;;;2.33;2.10;;;17.40;77.00;;;;;;5021430;28;20056;-79
2022/06/06 00:57:02;;;;;;;3.08;2.40;;;17.40;77.00;;;;;;5019701;28;20035;-79
2022/06/06 00:59:32;;;;;;;4.03;2.40;;;17.40;77.10;;;;;;5020837;28;20516;-78
2022/06/06 01:02:00;;;;;;;4.78;2.30;;;17.40;77.20;;;;;;5021282;28;20465;-79
2022/06/06 01:04:28;;;;;;;2.17;1.98;;;17.40;77.30;;;;;;5035444;28;20117;-79
2022/06/06 01:06:54;;;;;;;2.38;2.15;;;17.40;77.40;;;;;;5020825;28;20040;-79
2022/06/06 01:09:24;;;;;;;4.28;2.45;;;17.40;77.40;;;;;;5019064;28;20076;-79
2022/06/06 01:12:00;;;;;;;3.58;2.10;;;17.40;77.30;;;;;;5020360;28;20550;-80
2022/06/06 01:14:28;;;;;;;2.90;1.95;;;17.40;77.40;;;;;;5020601;28;20037;-79
2022/06/06 01:17:31;;;;;;;4.63;2.50;;;17.40;77.50;;;;;;5020566;28;20129;-78
2022/06/06 01:20:34;;;;;;;3.45;2.30;;;17.40;77.20;;;;;;5020751;28;20629;-78
2022/06/06 01:23:19;;;;;;;3.53;2.33;;;17.40;77.20;;;;;;5017910;28;20476;-79
2022/06/06 01:25:54;;;;;;;4.38;2.30;;;17.50;77.40;;;;;;5020340;28;20142;-80
2022/06/06 01:28:48;;;;;;;2.50;2.15;;;17.50;77.10;;;;;;5019091;28;20108;-78
2022/06/06 01:31:31;;;;;;;4.13;2.50;;;17.60;76.60;;;;;;5021499;28;20476;-79
2022/06/06 01:34:00;;;;;;;2.33;2.13;;;17.70;76.40;;;;;;5054536;28;20034;-79
2022/06/06 01:36:29;;;;;;;2.25;2.05;;;17.70;76.30;;;;;;5020919;28;20025;-79
2022/06/06 01:39:00;;;;;;;2.55;2.22;;;17.80;76.10;;;;;;5024473;28;20036;-79
2022/06/06 01:41:51;;;;;;;4.50;2.35;;;17.70;76.10;;;;;;5053431;28;20077;-79
2022/06/06 01:44:20;;;;;;;3.65;2.33;;;17.70;76.30;;;;;;5051285;28;20128;-79
2022/06/06 01:46:48;;;;;;;2.67;2.47;;;17.70;76.30;;;;;;5020445;28;20037;-79
2022/06/06 01:49:15;;;;;;;4.53;2.80;;;17.60;76.50;;;;;;5018269;28;20037;-78
2022/06/06 01:51:41;;;;;;;8.10;2.47;;;17.60;76.50;;;;;;5051717;28;20467;-78
2022/06/06 01:54:08;;;;;;;3.47;2.17;;;17.50;76.40;;;;;;5018236;28;20033;-78
2022/06/06 01:56:40;;;;;;;3.55;2.67;;;17.50;76.70;;;;;;5020190;28;20494;-79
2022/06/06 01:59:06;;;;;;;4.55;2.67;;;17.50;76.70;;;;;;5033810;28;20049;-80
2022/06/06 02:01:32;;;;;;;3.85;2.40;;;17.50;76.70;;;;;;5018257;28;20038;-80
2022/06/06 02:03:58;;;;;;;3.22;2.25;;;17.50;76.80;;;;;;5020610;28;20045;-81
2022/06/06 02:06:25;;;;;;;3.22;2.47;;;17.50;77.10;;;;;;5019928;28;20076;-80
2022/06/06 02:08:51;;;;;;;3.92;2.20;;;17.40;77.00;;;;;;5020309;28;20473;-81
2022/06/06 02:11:19;;;;;;;3.03;2.35;;;17.40;77.00;;;;;;5019281;28;20126;-78
2022/06/06 02:13:45;;;;;;;2.33;1.98;;;17.40;77.10;;;;;;5020245;28;20504;-78
2022/06/06 02:16:11;;;;;;;4.05;2.88;;;17.50;77.00;;;;;;5019953;28;20583;-79
2022/06/06 02:18:38;;;;;;;3.10;2.40;;;17.60;77.40;;;;;;5016658;28;20041;-78
2022/06/06 02:21:04;;;;;;;2.50;2.30;;;17.80;76.50;;;;;;5035671;28;20087;-78
2022/06/06 02:23:31;;;;;;;3.92;2.25;;;18.00;75.90;;;;;;5017635;28;20041;-79
2022/06/06 02:25:57;;;;;;;2.70;2.17;;;18.20;75.60;;;;;;5018761;28;20092;-79
2022/06/06 02:28:24;;;;;;;2.72;2.33;;;18.30;75.20;;;;;;5023884;28;20094;-79
2022/06/06 02:30:50;;;;;;;3.30;2.15;;;18.50;74.70;;;;;;5025550;28;20041;-79
2022/06/06 02:33:16;;;;;;;2.40;2.13;;;18.70;74.70;;;;;;5054299;28;20069;-79
2022/06/06 02:35:43;;;;;;;3.97;2.22;;;18.90;74.00;;;;;;5024018;28;20494;-79
2022/06/06 02:38:11;;;;;;;2.35;2.15;;;19.00;73.50;;;;;;5032718;28;20013;-79
2022/06/06 02:40:37;;;;;;;1.70;1.60;;;19.20;73.40;;;;;;5038631;28;20203;-80
2022/06/06 02:43:03;;;;;;;3.15;2.03;;;19.40;73.60;;;;;;5026973;28;20080;-80
2022/06/06 02:45:29;;;;;;;2.60;1.77;;;19.50;73.30;;;;;;5024791;28;20061;-79
2022/06/06 02:47:57;;;;;;;2.47;1.80;;;19.60;73.70;;;;;;5022526;28;20029;-79
2022/06/06 02:50:28;;;;;;;2.20;1.98;;;19.80;73.20;;;;;;5037567;28;20571;-78
2022/06/06 02:52:54;;;;;;;2.90;1.70;;;19.90;73.10;;;;;;5021183;28;20528;-79
2022/06/06 02:55:21;;;;;;;2.22;1.80;;;20.00;73.30;;;;;;5020864;28;20033;-79
2022/06/06 02:57:50;;;;;;;2.10;1.70;;;20.10;73.00;;;;;;5022467;28;20145;-78
2022/06/06 03:00:20;;;;;;;2.15;1.63;;;20.20;73.20;;;;;;5021951;28;20037;-79
2022/06/06 03:02:46;;;;;;;3.17;1.85;;;20.30;73.00;;;;;;5025450;28;20072;-79
2022/06/06 03:05:12;;;;;;;3.90;2.17;;;20.40;71.90;;;;;;5052783;28;20120;-80
2022/06/06 03:07:59;;;;;;;4.32;2.53;;;20.40;71.30;;;;;;5021798;28;20044;-78
2022/06/06 03:10:31;;;;;;;8.63;2.47;;;20.20;70.80;;;;;;5055397;28;20042;-79
2022/06/06 03:13:11;;;;;;;2.95;1.98;;;20.10;71.10;;;;;;5021109;28;20037;-79
2022/06/06 03:22:51;;;;;;;2.42;2.15;;;20.00;71.20;;;;;;4956290;28;20081;-77
2022/06/06 03:25:43;;;;;;;2.22;2.10;;;20.20;71.50;;;;;;4999294;28;20536;-77
2022/06/06 03:28:37;;;;;;;2.20;2.00;;;20.50;71.40;;;;;;5018976;28;20046;-79
2022/06/06 03:31:20;;;;;;;2.63;1.90;;;20.70;71.50;;;;;;4983540;28;20066;-79
2022/06/06 03:34:16;;;;;;;3.13;2.08;;;20.90;71.10;;;;;;5019803;28;20806;-79
2022/06/06 03:37:03;;;;;;;2.35;2.17;;;21.00;70.80;;;;;;5011232;28;20090;-79
2022/06/06 03:39:40;;;;;;;2.00;1.90;;;21.20;70.70;;;;;;4968878;28;20149;-78
2022/06/06 03:42:22;;;;;;;2.08;1.98;;;21.30;70.40;;;;;;4992309;28;20038;-79
2022/06/06 03:44:56;;;;;;;3.38;1.90;;;21.50;70.30;;;;;;5001301;28;20117;-78
2022/06/06 03:47:22;;;;;;;2.72;1.80;;;21.60;70.30;;;;;;5001975;28;20034;-78
2022/06/06 03:49:51;;;;;;;2.20;2.00;;;21.70;70.20;;;;;;5000542;28;20113;-78
2022/06/06 03:52:24;;;;;;;3.55;2.20;;;21.90;70.00;;;;;;5002591;28;20033;-78
2022/06/06 03:54:59;;;;;;;2.33;2.13;;;22.00;70.20;;;;;;4999860;28;20034;-78
2022/06/06 03:57:26;;;;;;;2.07;1.87;;;22.10;69.60;;;;;;5020099;28;20085;-79
2022/06/06 03:59:56;;;;;;;2.22;1.98;;;22.20;69.40;;;;;;5036522;28;20294;-79
2022/06/06 04:02:28;;;;;;;3.28;1.95;;;22.30;70.20;;;;;;5020837;28;20043;-79
2022/06/06 04:04:55;;;;;;;2.30;2.05;;;22.40;69.10;;;;;;5037101;28;20388;-79
2022/06/06 04:07:21;;;;;;;2.58;2.38;;;22.50;69.00;;;;;;5053247;28;20045;-78
2022/06/06 04:09:47;;;;;;;2.75;2.30;;;22.70;68.50;;;;;;5021792;28;20034;-79
2022/06/06 04:12:28;;;;;;;2.33;1.90;;;22.70;68.60;;;;;;5020811;28;20038;-78
2022/06/06 04:15:29;;;;;;;2.80;1.95;;;22.90;68.70;;;;;;5021843;28;20125;-79
2022/06/06 04:18:49;;;;;;;2.38;1.77;;;23.00;68.50;;;;;;5016026;28;20219;-86
2022/06/06 04:21:53;;;;;;;2.15;2.05;;;23.10;67.90;;;;;;5009841;28;20038;-84
2022/06/06 04:24:30;;;;;;;2.03;1.83;;;23.30;68.00;;;;;;4963084;28;20082;-82
2022/06/06 04:27:09;;;;;;;2.00;1.90;;;23.40;67.60;;;;;;4943744;28;20526;-82
2022/06/06 04:29:49;;;;;;;2.28;2.10;;;23.50;67.60;;;;;;4948299;28;20500;-79
2022/06/06 04:32:26;;;;;;;5.72;2.28;;;23.70;67.50;;;;;;4964556;28;20524;-81
2022/06/06 04:35:07;;;;;;;4.65;2.33;;;23.80;65.00;;;;;;4950656;28;20031;-82
2022/06/06 04:37:54;;;;;;;4.18;2.80;;;23.60;61.20;;;;;;4945067;28;20087;-75
2022/06/06 04:40:35;;;;;;;3.67;2.50;;;23.90;59.70;;;;;;4943382;28;20039;-75
2022/06/06 04:43:34;;;;;;;2.67;2.47;;;23.50;59.20;;;;;;4928255;29;20028;-78
2022/06/06 04:46:33;;;;;;;3.58;2.30;;;23.80;59.90;;;;;;4928194;29;20043;-76
2022/06/06 04:49:00;;;;;;;3.75;2.35;;;24.00;59.70;;;;;;4932921;28;20102;-74
2022/06/06 04:51:27;;;;;;;3.28;2.50;;;23.90;60.70;;;;;;4934282;28;20035;-79
2022/06/06 04:53:56;;;;;;;2.72;2.40;;;24.20;59.00;;;;;;4965677;28;20022;-78
2022/06/06 04:56:24;;;;;;;4.18;2.55;;;24.00;58.50;;;;;;4947088;28;20445;-79
2022/06/06 04:58:52;;;;;;;4.13;2.78;;;24.40;57.20;;;;;;4990678;28;20128;-78
2022/06/06 05:01:18;;;;;;;3.80;2.47;;;24.40;56.90;;;;;;5001479;28;20053;-77
2022/06/06 05:03:45;;;;;;;2.85;2.58;;;24.40;57.50;;;;;;5000540;28;20125;-77
2022/06/06 05:06:29;;;;;;;3.72;2.80;;;24.60;58.60;;;;;;4999139;28;20038;-77
2022/06/06 05:09:38;;;;;;;3.88;2.50;;;24.70;58.00;;;;;;5000782;28;20049;-77
2022/06/06 05:12:11;;;;;;;3.05;2.75;;;24.60;57.10;;;;;;5044928;28;20034;-76
2022/06/06 05:14:48;;;;;;;3.40;2.55;;;24.70;57.90;;;;;;5020872;28;20045;-77
2022/06/06 05:17:49;;;;;;;2.72;2.33;;;24.90;58.70;;;;;;5053221;28;20029;-76
2022/06/06 05:20:53;;;;;;;2.97;2.40;;;24.80;56.90;;;;;;5022673;28;20049;-76
2022/06/06 05:23:51;;;;;;;3.92;2.45;;;25.00;57.50;;;;;;5016061;28;20052;-77
2022/06/06 05:26:23;;;;;;;4.15;2.60;;;25.20;57.80;;;;;;5021383;28;20052;-78
2022/06/06 05:29:07;;;;;;;2.35;2.13;;;25.40;56.50;;;;;;5018148;28;20050;-77
2022/06/06 05:31:54;;;;;;;3.80;2.30;;;25.20;55.70;;;;;;5020712;28;20030;-78
2022/06/06 05:35:01;;;;;;;2.30;2.10;;;25.20;55.30;;;;;;5020957;28;20033;-78
2022/06/06 05:37:36;;;;;;;2.90;2.28;;;25.40;55.70;;;;;;4997253;28;20496;-77
2022/06/06 05:40:17;;;;;;;2.72;2.17;;;25.40;55.40;;;;;;5018984;28;20034;-77
2022/06/06 05:42:58;;;;;;;2.58;2.38;;;25.50;55.50;;;;;;5018898;28;20065;-77
2022/06/06 05:46:09;;;;;;;2.53;2.33;;;25.60;54.60;;;;;;5019377;28;20595;-77
2022/06/06 05:49:20;;;;;;;4.97;2.20;;;25.60;53.20;;;;;;5020619;28;20412;-77
2022/06/06 05:51:56;;;;;;;2.53;2.33;;;26.00;53.70;;;;;;4962710;28;20031;-77
2022/06/06 05:54:50;;;;;;;2.58;2.38;;;26.10;53.20;;;;;;4959018;28;20706;-78
2022/06/06 05:57:41;;;;;;;5.22;2.40;;;26.10;52.10;;;;;;4963586;28;20066;-78
2022/06/06 06:00:16;;;;;;;4.00;2.30;;;26.10;53.00;;;;;;4954809;28;20043;-78
2022/06/06 06:03:01;;;;;;;3.20;2.33;;;26.10;53.60;;;;;;4949620;28;20050;-78
2022/06/06 06:06:05;;;;;;;2.80;2.23;;;26.30;53.30;;;;;;4950010;28;20065;-79
2022/06/06 06:08:58;;;;;;;3.08;2.20;;;26.00;53.50;;;;;;4945101;28;20510;-80
2022/06/06 06:11:51;;;;;;;4.18;2.50;;;26.30;54.00;;;;;;4951370;28;20035;-80
2022/06/06 06:14:39;;;;;;;4.40;2.33;;;26.30;54.30;;;;;;4950394;28;20038;-80
2022/06/06 06:17:06;;;;;;;4.70;2.40;;;26.10;53.20;;;;;;4950970;28;20039;-79
2022/06/06 06:19:45;;;;;;;2.30;2.20;;;25.90;53.60;;;;;;4959030;28;20085;-79
2022/06/06 06:22:15;;;;;;;3.05;2.40;;;25.80;52.10;;;;;;4963937;28;20103;-80
2022/06/06 06:24:42;;;;;;;3.10;2.30;;;25.70;53.00;;;;;;4970665;28;20042;-80
2022/06/06 06:27:11;;;;;;;3.88;2.60;;;26.10;53.90;;;;;;5019684;28;20065;-79
2022/06/06 06:29:37;;;;;;;5.05;2.45;;;26.20;54.30;;;;;;5018861;28;20046;-78
2022/06/06 06:32:42;;;;;;;3.95;2.15;;;26.50;53.70;;;;;;4992188;28;20384;-79
2022/06/06 06:35:18;;;;;;;3.83;2.20;;;26.50;53.30;;;;;;5022480;28;20052;-80
2022/06/06 06:37:54;;;;;;;2.75;2.40;;;26.50;52.60;;;;;;5007219;28;20030;-79
2022/06/06 06:40:25;;;;;;;3.33;2.30;;;26.70;52.70;;;;;;5016070;28;20068;-78
2022/06/06 06:43:07;;;;;;;4.22;2.10;;;26.80;51.80;;;;;;5023310;28;20037;-79
2022/06/06 06:45:50;;;;;;;2.22;2.03;;;26.80;51.00;;;;;;5024533;28;20037;-80
2022/06/06 06:48:46;;;;;;;2.35;2.15;;;26.80;50.90;;;;;;5023290;28;20033;-78
2022/06/06 06:51:15;;;;;;;6.07;2.63;;;26.60;50.70;;;;;;5004440;28;20048;-78
2022/06/06 06:54:13;;;;;;;2.50;2.30;;;26.50;51.40;;;;;;5009807;28;20041;-79
2022/06/06 06:56:42;;;;;;;3.42;2.50;;;26.80;50.50;;;;;;4992876;28;20041;-79
2022/06/06 06:59:27;;;;;;;2.80;2.60;;;27.00;49.90;;;;;;4992239;28;20040;-78
2022/06/06 07:08:32;;;;;;;5.30;2.75;;;26.70;48.80;;;;;;5004633;28;20034;-79
2022/06/06 07:11:23;;;;;;;2.25;2.15;;;26.70;48.80;;;;;;5007221;28;20081;-80
2022/06/06 07:14:06;;;;;;;2.78;2.50;;;26.60;49.00;;;;;;5003383;28;20030;-79
2022/06/06 07:16:38;;;;;;;5.82;2.53;;;26.60;48.70;;;;;;5005713;28;20037;-81
2022/06/06 07:19:18;;;;;;;3.50;2.33;;;26.60;47.80;;;;;;5002039;28;20049;-91
2022/06/06 07:21:46;;;;;;;6.57;3.00;;;26.50;49.30;;;;;;5004062;28;20043;-86
2022/06/06 07:24:17;;;;;;;2.95;2.60;;;26.00;51.50;;;;;;5005331;28;20026;-87
2022/06/06 07:26:44;;;;;;;2.33;2.10;;;25.40;52.10;;;;;;5004586;28;20213;-85
2022/06/06 07:29:13;;;;;;;3.33;2.60;;;25.50;51.60;;;;;;5003636;28;20455;-77
2022/06/06 07:31:53;;;;;;;3.95;2.72;;;25.30;52.40;;;;;;5002030;28;20496;-80
2022/06/06 07:34:26;;;;;;;4.35;2.35;;;25.50;53.20;;;;;;5002369;28;20038;-80
2022/06/06 07:37:22;;;;;;;2.83;2.47;;;25.70;51.90;;;;;;5002184;28;20034;-79
2022/06/06 07:40:06;;;;;;;3.33;2.40;;;25.40;51.60;;;;;;5002829;28;20045;-79
2022/06/06 07:43:17;;;;;;;3.13;2.47;;;25.00;52.70;;;;;;5002126;28;20029;-79
2022/06/06 07:45:48;;;;;;;3.50;2.60;;;24.80;53.60;;;;;;4986794;28;20030;-79
2022/06/06 07:48:25;;;;;;;8.95;2.80;;;24.70;54.10;;;;;;4998587;28;20447;-77
2022/06/06 07:51:14;;;;;;;2.88;2.38;;;24.40;54.50;;;;;;5001036;28;20065;-81
2022/06/06 07:53:49;;;;;;;5.13;2.55;;;24.40;55.30;;;;;;5000811;28;20073;-81
2022/06/06 07:56:39;;;;;;;3.63;2.38;;;24.60;55.10;;;;;;4980596;28;20034;-78
2022/06/06 07:59:11;;;;;;;5.40;2.40;;;24.80;56.00;;;;;;4983102;28;20651;-81
2022/06/06 08:01:40;;;;;;;4.43;2.42;;;24.90;56.80;;;;;;4997374;28;20087;-80
2022/06/06 08:04:24;;;;;;;3.78;2.38;;;24.70;54.60;;;;;;4997284;28;20618;-79
2022/06/06 08:07:30;;;;;;;2.88;2.55;;;24.50;55.20;;;;;;4998133;28;20767;-80
2022/06/06 08:10:01;;;;;;;2.70;2.50;;;24.50;55.70;;;;;;4999633;28;20041;-80
2022/06/06 08:13:18;;;;;;;7.00;2.35;;;24.20;55.00;;;;;;4981928;28;20081;-80
2022/06/06 08:16:03;;;;;;;;;;;24.30;55.00;;;;;;4925954;29;20098;-81
2022/06/06 08:19:01;;;;;;;2.35;2.15;;;24.30;56.80;;;;;;4926333;29;20048;-81
2022/06/06 08:21:33;;;;;;;2.63;2.05;;;24.50;53.70;;;;;;4928869;28;20106;-81
2022/06/06 08:24:02;;;;;;;3.47;2.28;;;24.70;53.70;;;;;;4944892;28;20059;-78
2022/06/06 08:26:30;;;;;;;3.35;2.35;;;24.60;54.40;;;;;;4945899;28;20051;-81
2022/06/06 08:28:56;;;;;;;3.13;2.10;;;24.50;53.10;;;;;;4925483;28;20801;-80
2022/06/06 08:31:22;;;;;;;4.43;2.80;;;24.30;53.30;;;;;;4945139;28;20302;-81
2022/06/06 08:33:48;;;;;;;3.28;2.97;;;24.00;53.70;;;;;;4928605;28;20057;-81
2022/06/06 08:36:39;;;;;;;3.88;2.53;;;23.90;55.20;;;;;;4945264;28;20030;-81
2022/06/06 08:39:10;;;;;;;2.83;2.38;;;23.90;55.20;;;;;;4946241;28;20042;-81
2022/06/06 08:42:06;;;;;;;2.40;2.20;;;23.70;55.60;;;;;;4941918;28;20044;-80
2022/06/06 08:44:58;;;;;;;3.55;2.53;;;23.80;56.10;;;;;;4929130;28;20554;-80
2022/06/06 08:48:02;;;;;;;2.38;2.03;;;24.00;53.80;;;;;;4909635;29;20035;-78
2022/06/06 08:50:59;;;;;;;4.95;2.47;;;24.00;55.60;;;;;;4935563;28;20559;-81
2022/06/06 08:54:06;;;;;;;3.03;2.10;;;24.00;53.20;;;;;;4985494;28;20034;-80
2022/06/06 08:56:55;;;;;;;3.45;2.28;;;23.60;54.40;;;;;;4998234;28;20058;-79
2022/06/06 08:59:39;;;;;;;3.53;2.25;;;23.60;54.00;;;;;;4977586;28;20038;-81
2022/06/06 09:02:24;;;;;;;4.20;2.28;;;23.50;54.70;;;;;;4981472;28;20090;-83
2022/06/06 09:05:11;;;;;;;6.70;2.20;;;23.60;55.10;;;;;;5003143;28;20037;-82
2022/06/06 09:07:46;;;;;;;2.72;2.00;;;23.60;55.70;;;;;;4998821;28;20062;-80
2022/06/06 09:10:44;;;;;;;4.45;2.15;;;23.70;55.20;;;;;;4999048;28;20372;-90
2022/06/06 09:13:21;;;;;;;3.15;2.10;;;23.70;54.20;;;;;;4999571;28;20260;-96
2022/06/06 09:15:56;;;;;;;4.80;2.10;;;23.50;53.40;;;;;;5010287;28;20092;-90
2022/06/06 09:18:22;;;;;;;;;;;23.60;54.60;;;;;;4987116;28;20049;-82
2022/06/06 09:21:11;;;;;;;2.67;2.47;;;23.70;55.80;;;;;;5003310;28;19917;-88
2022/06/06 09:23:47;;;;;;;6.05;2.60;;;23.70;55.30;;;;;;4996947;28;20026;-94
2022/06/06 09:26:27;;;;;;;3.72;2.72;;;23.70;56.30;;;;;;5027616;28;20041;-93
2022/06/06 09:29:31;;;;;;;6.88;2.67;;;23.70;55.80;;;;;;5055077;28;20123;-87
2022/06/06 09:32:20;;;;;;;3.70;2.50;;;23.70;54.60;;;;;;4985734;28;20031;-93
2022/06/06 09:35:16;;;;;;;3.28;2.58;;;23.60;54.40;;;;;;4988390;28;20038;-89
2022/06/06 09:38:12;;;;;;;4.70;2.55;;;23.70;56.90;;;;;;4976742;28;20046;-91
2022/06/06 09:41:06;;;;;;;2.47;2.28;;;23.80;56.70;;;;;;4957680;28;20049;-85
2022/06/06 09:43:53;;;;;;;6.63;2.30;;;23.80;55.10;;;;;;4955016;28;20070;-86
2022/06/06 09:46:27;;;;;;;7.25;2.10;;;23.80;54.40;;;;;;4971163;28;20035;-88
2022/06/06 09:49:18;;;;;;;2.47;2.13;;;23.70;53.60;;;;;;4954424;28;20142;-83
2022/06/06 09:51:44;;;;;;;5.05;2.10;;;23.50;53.20;;;;;;4944593;28;20454;-86
2022/06/06 10:00:39;;;;;;;5.13;2.30;;;23.60;54.30;;;;;;4942082;29;20067;-84
2022/06/06 10:03:32;;;;;;;2.60;2.28;;;23.70;54.60;;;;;;4936650;29;20462;-84
2022/06/06 10:06:19;;;;;;;6.13;2.70;;;23.70;54.60;;;;;;4952795;29;20039;-85
2022/06/06 10:08:51;;;;;;;3.92;1.92;;;23.70;53.90;;;;;;4963277;28;20042;-82
2022/06/06 10:11:43;;;;;;;2.75;1.98;;;23.50;53.10;;;;;;4960403;28;20048;-90
2022/06/06 10:14:35;;;;;;;4.30;1.85;;;23.40;54.00;;;;;;4983060;28;20030;-87
2022/06/06 10:17:44;;;;;;;3.85;1.88;;;23.50;54.80;;;;;;4989709;28;20129;-85
2022/06/06 10:20:10;;;;;;;4.55;1.60;;;23.50;54.80;;;;;;4939937;28;20046;-80
2022/06/06 10:23:03;;;;;;;3.92;2.10;;;23.50;54.10;;;;;;4954439;28;20038;-83
2022/06/06 10:25:53;;;;;;;2.00;1.80;;;23.40;54.60;;;;;;4956570;28;20038;-86
2022/06/06 10:28:33;;;;;;;3.25;1.80;;;23.40;54.50;;;;;;4976189;28;20102;-87
2022/06/06 10:31:36;;;;;;;3.08;1.58;;;23.50;54.80;;;;;;4974199;28;20050;-85
2022/06/06 10:34:14;;;;;;;3.70;1.75;;;23.50;55.20;;;;;;4957716;28;20133;-88
2022/06/06 10:36:58;;;;;;;7.18;1.80;;;23.50;54.60;;;;;;4974348;28;20035;-79
2022/06/06 10:39:49;;;;;;;4.85;2.33;;;23.40;53.70;;;;;;4937490;28;20078;-84
2022/06/06 10:42:34;;;;;;;5.75;2.30;;;23.30;54.00;;;;;;4954991;28;20561;-80
2022/06/06 10:45:24;;;;;;;3.20;2.00;;;23.30;54.40;;;;;;4957335;28;20174;-79
2022/06/06 10:48:12;;;;;;;5.35;2.05;;;23.40;54.80;;;;;;4880542;29;20182;-78
2022/06/06 10:54:14;;;;;;;1.95;1.70;;;23.40;55.00;;;;;;4914774;29;20064;-80
2022/06/06 10:56:40;;;;;;;1.80;1.70;;;23.30;54.70;;;;;;4909340;29;20043;-80
2022/06/06 10:59:44;;;;;;;3.42;1.83;;;23.40;54.70;;;;;;4939459;28;20095;-83
2022/06/06 11:02:19;;;;;;;2.53;1.85;;;23.40;54.60;;;;;;4909265;29;20468;-84
2022/06/06 11:05:00;;;;;;;;;;;23.30;53.80;;;;;;4911347;29;20043;-85
2022/06/06 11:07:29;;;;;;;4.28;2.20;;;23.30;55.40;;;;;;4894543;29;19919;-77
2022/06/06 11:10:27;;;;;;;1.65;1.40;;;23.40;55.30;;;;;;4911547;29;20425;-84
2022/06/06 11:13:14;;;;;;;2.75;1.63;;;23.40;54.10;;;;;;4862161;29;20036;-85
2022/06/06 11:16:12;;;;;;;2.05;1.83;;;23.30;54.30;;;;;;4896680;29;20075;-86
2022/06/06 11:18:38;;;;;;;5.70;1.98;;;23.30;54.50;;;;;;4912277;29;20091;-87
2022/06/06 11:21:37;;;;;;;4.43;1.63;;;23.30;55.40;;;;;;4896171;29;20036;-86
2022/06/06 11:24:31;;;;;;;4.05;1.55;;;23.40;54.30;;;;;;4921774;28;20054;-85
2022/06/06 11:27:19;;;;;;;3.13;1.63;;;23.40;55.20;;;;;;4971612;28;20054;-87
2022/06/06 11:30:09;;;;;;;2.67;1.70;;;23.50;52.50;;;;;;4952357;28;20039;-81
2022/06/06 11:33:08;;;;;;;3.05;1.65;;;23.40;53.50;;;;;;4999703;28;20532;-80
2022/06/06 11:35:54;;;;;;;2.42;1.65;;;23.20;54.40;;;;;;4970969;28;20041;-80
2022/06/06 11:38:47;;;;;;;2.70;2.03;;;23.10;53.40;;;;;;5004689;28;20124;-80
2022/06/06 11:41:32;;;;;;;2.38;1.65;;;23.00;53.70;;;;;;5022291;28;20025;-83
2022/06/06 11:44:36;;;;;;;2.65;1.40;;;23.10;55.10;;;;;;5038295;28;20537;-84
2022/06/06 11:47:26;;;;;;;2.95;1.70;;;23.00;53.70;;;;;;5008058;28;20036;-85
2022/06/06 11:50:01;;;;;;;4.72;1.52;;;23.00;54.20;;;;;;5008527;28;20030;-84
2022/06/06 11:52:43;;;;;;;2.90;1.85;;;23.10;55.20;;;;;;5008604;28;20075;-84
2022/06/06 11:55:47;;;;;;;4.28;1.60;;;23.10;55.40;;;;;;5005036;28;20582;-84
2022/06/06 11:58:22;;;;;;;3.95;1.55;;;23.10;54.70;;;;;;4992231;28;20080;-84
2022/06/06 12:00:50;;;;;;;2.70;1.38;;;23.00;53.40;;;;;;5023412;28;20168;-83
2022/06/06 12:03:28;;;;;;;1.05;1.00;;;23.00;53.90;;;;;;5003607;28;20132;-85
2022/06/06 12:06:03;;;;;;;2.95;1.40;;;23.20;51.80;;;;;;5010241;28;20373;-86
2022/06/06 12:08:56;;;;;;;4.38;1.38;;;23.20;51.30;;;;;;5022189;28;20069;-86
2022/06/06 12:12:00;;;;;;;2.25;1.33;;;23.20;53.60;;;;;;5021265;28;20049;-87
2022/06/06 12:15:00;;;;;;;3.38;1.50;;;23.30;52.50;;;;;;5008986;28;20045;-86
2022/06/06 12:17:33;;;;;;;2.17;1.35;;;23.40;53.10;;;;;;5005470;28;20030;-87
2022/06/06 12:20:11;;;;;;;1.13;1.00;;;23.30;52.50;;;;;;5024959;28;20038;-87
2022/06/06 12:23:05;;;;;;;2.78;1.50;;;23.30;52.50;;;;;;5038670;28;20041;-85
2022/06/06 12:25:53;;;;;;;3.50;1.30;;;23.40;52.60;;;;;;5029731;28;20041;-89
2022/06/06 12:28:22;;;;;;;1.60;1.33;;;23.40;52.90;;;;;;5027387;28;20022;-84
2022/06/06 12:31:36;;;;;;;3.13;1.38;;;23.40;52.60;;;;;;5048489;28;20033;-88
2022/06/06 12:34:49;;;;;;;2.72;1.52;;;23.40;51.70;;;;;;4981877;28;20125;-88
2022/06/06 12:37:33;;;;;;;1.50;1.30;;;23.40;51.80;;;;;;4983083;28;20066;-89
2022/06/06 12:40:08;;;;;;;4.03;1.80;;;23.40;51.40;;;;;;4979326;28;20125;-84
2022/06/06 12:43:05;;;;;;;3.10;1.10;;;23.40;51.80;;;;;;4964927;28;20039;-89
2022/06/06 12:45:52;;;;;;;3.22;1.75;;;23.40;51.00;;;;;;4947971;28;20105;-88
2022/06/06 12:48:44;;;;;;;2.28;1.20;;;23.30;50.10;;;;;;4978938;28;20037;-88
2022/06/06 12:51:18;;;;;;;2.97;1.13;;;23.20;49.20;;;;;;4967080;28;20046;-88
2022/06/06 12:54:05;;;;;;;2.72;1.48;;;23.20;50.30;;;;;;4978572;28;20520;-87
2022/06/06 12:56:42;;;;;;;4.80;1.40;;;23.20;49.30;;;;;;4951020;28;20062;-88
2022/06/06 12:59:32;;;;;;;2.30;1.42;;;23.30;50.70;;;;;;4967605;28;20473;-88
2022/06/06 13:02:10;;;;;;;2.42;1.35;;;23.30;49.60;;;;;;4978309;28;20626;-87
2022/06/06 13:04:58;;;;;;;1.80;1.05;;;23.40;50.30;;;;;;4999138;28;20048;-86
2022/06/06 13:07:39;;;;;;;1.85;1.15;;;23.20;48.10;;;;;;5037880;28;20036;-85
2022/06/06 13:10:14;;;;;;;6.07;1.45;;;23.10;49.10;;;;;;5037471;28;20470;-88
2022/06/06 13:12:40;;;;;;;;;;;23.20;50.10;;;;;;5024052;28;20045;-84
2022/06/06 13:15:31;;;;;;;2.67;1.40;;;23.30;51.10;;;;;;5024598;28;19924;-87
2022/06/06 13:18:28;;;;;;;1.63;1.17;;;23.40;50.20;;;;;;5020628;28;20045;-85
2022/06/06 13:21:25;;;;;;;1.55;1.10;;;23.40;49.90;;;;;;5024568;28;20500;-88
2022/06/06 13:24:06;;;;;;;1.45;1.10;;;23.40;50.50;;;;;;5004196;28;20092;-88
2022/06/06 13:26:53;;;;;;;0.90;0.90;;;23.40;49.00;;;;;;5020839;28;20045;-87
2022/06/06 13:29:29;;;;;;;1.27;0.98;;;23.40;49.50;;;;;;5019852;28;20069;-87
2022/06/06 13:32:23;;;;;;;1.27;0.90;;;23.40;50.10;;;;;;5016937;28;20033;-86
2022/06/06 13:34:55;;;;;;;2.15;1.08;;;23.40;48.00;;;;;;5020790;28;20038;-85
2022/06/06 13:37:44;;;;;;;1.25;1.00;;;23.40;49.10;;;;;;4991776;28;20085;-86
2022/06/06 13:40:25;;;;;;;2.92;0.90;;;23.40;48.50;;;;;;5042354;28;20092;-84
2022/06/06 13:43:09;;;;;;;2.63;1.05;;;23.30;48.80;;;;;;5029842;28;20021;-83
2022/06/06 13:46:12;;;;;;;2.33;1.40;;;23.30;49.40;;;;;;5044128;28;20042;-87
2022/06/06 13:49:04;;;;;;;3.28;1.30;;;23.30;50.00;;;;;;5024882;28;20045;-86
2022/06/06 13:51:55;;;;;;;1.20;1.10;;;23.30;50.50;;;;;;5003900;28;20580;-86
2022/06/06 13:54:30;;;;;;;2.00;1.60;;;23.30;50.00;;;;;;5018359;28;20033;-86
2022/06/06 13:57:13;;;;;;;1.58;1.17;;;23.40;49.90;;;;;;5019120;28;20264;-84
2022/06/06 14:00:01;;;;;;;3.40;1.25;;;23.30;49.90;;;;;;5023325;28;20033;-87
2022/06/06 14:02:40;;;;;;;4.45;1.23;;;23.30;49.20;;;;;;5020571;28;20044;-86
2022/06/06 14:05:25;;;;;;;3.00;0.90;;;23.30;49.90;;;;;;5019036;28;20521;-86
2022/06/06 14:08:06;;;;;;;1.30;1.20;;;23.30;49.60;;;;;;5018344;28;20467;-87
2022/06/06 14:10:51;;;;;;;2.20;0.88;;;23.30;50.20;;;;;;5019835;28;20504;-86
2022/06/06 14:13:31;;;;;;;2.58;1.23;;;23.30;48.70;;;;;;5023439;28;20432;-83
2022/06/06 14:15:58;;;;;;;2.30;1.10;;;23.20;50.60;;;;;;4999630;28;20048;-83
2022/06/06 14:18:36;;;;;;;1.48;1.05;;;23.20;49.90;;;;;;5021413;28;20037;-86
2022/06/06 14:21:03;;;;;;;8.48;1.40;;;23.20;50.20;;;;;;5003835;28;20033;-87
2022/06/06 14:23:35;;;;;;;6.20;1.17;;;23.20;51.50;;;;;;5025853;28;20038;-85
2022/06/06 14:26:08;;;;;;;3.45;1.50;;;23.10;53.40;;;;;;5024220;28;20079;-87